Time;durP1;ratioP1;P1;durP2;ratioP2;P2;SDS_P1;SDS_P2;PMS_P1;PMS_P2;Temp;Humidity;BMP_temperature;BMP_pressure;BME280_temperature;BME280_humidity;BME280_pressure;Samples;Min_cycle;Max_cycle;Signal;HPM_P1;HPM_P2
2023/12/15 00:01:42;;;;;;;17.23;12.15;;;;;;;;;;5036827;28;20056;-60
2023/12/15 00:04:08;;;;;;;14.50;10.35;;;;;;;;;;5038352;28;20513;-61
2023/12/15 00:06:34;;;;;;;16.35;10.45;;;;;;;;;;5036082;28;20083;-61
2023/12/15 00:09:00;;;;;;;14.77;10.93;;;;;;;;;;5040193;28;20128;-61
2023/12/15 00:11:26;;;;;;;14.88;11.55;;;;;;;;;;5040268;28;20493;-60
2023/12/15 00:13:52;;;;;;;13.98;10.30;;;;;;;;;;5040349;28;20068;-62
2023/12/15 00:16:18;;;;;;;15.65;11.88;;;;;;;;;;5039635;28;20563;-61
2023/12/15 00:18:44;;;;;;;14.60;11.00;;;;;;;;;;5038794;28;20481;-60
2023/12/15 00:21:10;;;;;;;16.70;11.60;;;;;;;;;;5038186;28;20049;-60
2023/12/15 00:23:36;;;;;;;12.43;10.52;;;;;;;;;;5039229;28;20090;-60
2023/12/15 00:26:02;;;;;;;12.50;9.88;;;;;;;;;;5039498;28;20049;-60
2023/12/15 00:28:28;;;;;;;15.15;11.02;;;;;;;;;;5038172;28;20055;-61
2023/12/15 00:30:54;;;;;;;14.60;10.98;;;;;;;;;;5038828;28;20033;-61
2023/12/15 00:33:20;;;;;;;11.18;10.07;;;;;;;;;;5037744;28;20041;-61
2023/12/15 00:35:46;;;;;;;13.68;10.02;;;;;;;;;;5038339;28;20342;-61
2023/12/15 00:38:12;;;;;;;12.32;10.73;;;;;;;;;;5038327;28;20077;-61
2023/12/15 00:40:38;;;;;;;13.38;10.30;;;;;;;;;;5042596;28;20041;-61
2023/12/15 00:43:04;;;;;;;13.55;10.48;;;;;;;;;;5037954;28;20100;-61
2023/12/15 00:45:30;;;;;;;16.00;10.95;;;;;;;;;;5039307;28;20037;-61
2023/12/15 00:47:56;;;;;;;14.27;11.55;;;;;;;;;;5039028;28;20077;-60
2023/12/15 00:50:22;;;;;;;13.88;11.32;;;;;;;;;;5036966;28;20053;-60
2023/12/15 00:52:48;;;;;;;14.48;11.02;;;;;;;;;;5040644;28;20040;-61
2023/12/15 00:55:14;;;;;;;14.40;11.15;;;;;;;;;;5038812;28;20045;-61
2023/12/15 00:57:40;;;;;;;11.00;8.98;;;;;;;;;;5039000;28;20398;-60
2023/12/15 01:00:06;;;;;;;11.10;8.63;;;;;;;;;;5038954;28;20048;-60
2023/12/15 01:02:32;;;;;;;12.40;10.50;;;;;;;;;;5040412;28;20041;-60
2023/12/15 01:04:58;;;;;;;10.95;9.70;;;;;;;;;;5040956;28;20048;-60
2023/12/15 01:07:24;;;;;;;12.68;10.50;;;;;;;;;;5038932;28;20039;-61
2023/12/15 01:09:50;;;;;;;13.55;10.32;;;;;;;;;;5035922;28;20145;-61
2023/12/15 01:12:16;;;;;;;14.32;10.32;;;;;;;;;;5038377;28;20409;-61
2023/12/15 01:14:43;;;;;;;12.95;11.05;;;;;;;;;;5040572;28;20033;-61
2023/12/15 01:17:09;;;;;;;14.40;10.90;;;;;;;;;;5042565;28;20643;-61
2023/12/15 01:19:35;;;;;;;16.42;12.73;;;;;;;;;;5037845;28;20363;-61
2023/12/15 01:22:01;;;;;;;12.70;10.90;;;;;;;;;;5037313;28;20040;-61
2023/12/15 01:24:27;;;;;;;12.90;10.75;;;;;;;;;;5038012;28;20108;-60
2023/12/15 01:26:53;;;;;;;12.32;10.15;;;;;;;;;;5033481;28;20598;-60
2023/12/15 01:29:19;;;;;;;15.18;11.45;;;;;;;;;;5035410;28;20052;-61
2023/12/15 01:31:45;;;;;;;13.80;10.88;;;;;;;;;;5036624;28;20123;-61
2023/12/15 01:34:11;;;;;;;13.50;11.00;;;;;;;;;;5035839;28;20501;-61
2023/12/15 01:36:37;;;;;;;15.48;12.00;;;;;;;;;;5038733;28;20056;-61
2023/12/15 01:39:03;;;;;;;16.10;12.60;;;;;;;;;;5039342;28;20041;-61
2023/12/15 01:41:31;;;;;;;15.68;10.55;;;;;;;;;;5037386;28;21565;-61
2023/12/15 01:43:57;;;;;;;18.95;14.07;;;;;;;;;;5038487;28;20045;-61
2023/12/15 01:46:23;;;;;;;15.27;12.05;;;;;;;;;;5041264;28;20063;-60
2023/12/15 01:48:50;;;;;;;14.90;12.13;;;;;;;;;;5038913;28;20053;-60
2023/12/15 01:51:16;;;;;;;20.45;13.90;;;;;;;;;;5036530;28;20053;-60
2023/12/15 01:53:43;;;;;;;20.48;15.15;;;;;;;;;;5035049;28;20170;-61
2023/12/15 01:56:09;;;;;;;16.30;12.73;;;;;;;;;;5038756;28;20045;-61
2023/12/15 01:58:35;;;;;;;19.85;13.85;;;;;;;;;;5043565;28;20056;-60
2023/12/15 02:01:01;;;;;;;18.65;14.43;;;;;;;;;;5038469;28;20389;-61
2023/12/15 02:03:27;;;;;;;14.88;12.18;;;;;;;;;;5035413;28;20041;-61
2023/12/15 02:05:53;;;;;;;16.95;12.02;;;;;;;;;;5041948;28;20159;-61
2023/12/15 02:08:19;;;;;;;16.45;13.10;;;;;;;;;;5034241;28;20546;-60
2023/12/15 02:10:45;;;;;;;16.70;13.02;;;;;;;;;;5040171;28;20041;-61
2023/12/15 02:13:11;;;;;;;21.75;15.50;;;;;;;;;;5036783;28;20052;-61
2023/12/15 02:15:37;;;;;;;19.13;14.02;;;;;;;;;;5035716;28;20033;-61
2023/12/15 02:18:03;;;;;;;21.27;14.68;;;;;;;;;;5035582;28;20041;-60
2023/12/15 02:20:30;;;;;;;17.00;13.82;;;;;;;;;;5035471;28;20038;-61
2023/12/15 02:22:57;;;;;;;18.17;13.48;;;;;;;;;;5039284;28;20099;-61
2023/12/15 02:25:24;;;;;;;19.40;15.35;;;;;;;;;;5036369;28;20103;-60
2023/12/15 02:27:50;;;;;;;19.20;15.40;;;;;;;;;;5041836;28;20172;-61
2023/12/15 02:30:16;;;;;;;23.05;15.93;;;;;;;;;;5033946;28;20115;-60
2023/12/15 02:32:42;;;;;;;23.92;16.35;;;;;;;;;;5036867;28;20129;-61
2023/12/15 02:35:11;;;;;;;22.38;15.93;;;;;;;;;;5036489;28;20503;-60
2023/12/15 02:37:37;;;;;;;18.52;14.00;;;;;;;;;;5035059;28;20055;-61
2023/12/15 02:40:03;;;;;;;18.80;12.27;;;;;;;;;;5036631;28;20037;-61
2023/12/15 02:42:29;;;;;;;17.10;12.07;;;;;;;;;;5034039;28;20083;-61
2023/12/15 02:44:55;;;;;;;19.67;14.13;;;;;;;;;;5039024;28;20068;-61
2023/12/15 02:47:21;;;;;;;18.85;12.65;;;;;;;;;;5036187;28;20475;-61
2023/12/15 02:49:47;;;;;;;14.88;12.20;;;;;;;;;;5037873;28;20041;-61
2023/12/15 02:52:13;;;;;;;13.23;10.65;;;;;;;;;;5035431;28;20037;-60
2023/12/15 02:54:39;;;;;;;12.15;10.65;;;;;;;;;;5037609;28;20093;-61
2023/12/15 02:57:05;;;;;;;13.27;10.20;;;;;;;;;;5036450;28;20049;-61
2023/12/15 02:59:31;;;;;;;10.80;9.38;;;;;;;;;;5042486;28;20041;-61
2023/12/15 03:01:57;;;;;;;9.50;8.02;;;;;;;;;;5039487;28;20032;-61
2023/12/15 03:04:23;;;;;;;9.10;8.00;;;;;;;;;;5031883;28;20153;-60
2023/12/15 03:06:49;;;;;;;9.40;7.75;;;;;;;;;;5039073;28;20405;-61
2023/12/15 03:09:15;;;;;;;15.23;10.68;;;;;;;;;;5040710;28;20044;-60
2023/12/15 03:11:41;;;;;;;14.68;10.35;;;;;;;;;;5037797;28;20504;-61
2023/12/15 03:14:07;;;;;;;15.35;11.90;;;;;;;;;;5039841;28;20049;-60
2023/12/15 03:16:33;;;;;;;14.73;11.20;;;;;;;;;;5038083;28;20048;-60
2023/12/15 03:18:59;;;;;;;14.65;11.63;;;;;;;;;;5036735;28;20041;-60
2023/12/15 03:21:25;;;;;;;11.88;9.68;;;;;;;;;;5036528;28;20631;-61
2023/12/15 03:23:51;;;;;;;13.02;10.02;;;;;;;;;;5034172;28;20037;-60
2023/12/15 03:26:17;;;;;;;11.80;10.18;;;;;;;;;;5033033;28;20049;-60
2023/12/15 03:28:43;;;;;;;13.52;10.57;;;;;;;;;;5037210;28;20041;-60
2023/12/15 03:31:09;;;;;;;13.10;10.80;;;;;;;;;;5039285;28;20037;-61
2023/12/15 03:33:35;;;;;;;13.38;10.98;;;;;;;;;;5044664;28;20040;-60
2023/12/15 03:36:01;;;;;;;17.10;12.20;;;;;;;;;;5044902;28;21182;-61
2023/12/15 03:38:27;;;;;;;14.88;11.20;;;;;;;;;;5043551;28;20408;-61
2023/12/15 03:40:53;;;;;;;14.48;11.30;;;;;;;;;;5043312;28;20033;-60
2023/12/15 03:43:19;;;;;;;11.10;9.93;;;;;;;;;;5042547;28;20029;-61
2023/12/15 03:45:46;;;;;;;14.50;10.93;;;;;;;;;;5042865;28;20827;-61
2023/12/15 03:48:12;;;;;;;12.20;10.90;;;;;;;;;;5036807;28;20498;-61
2023/12/15 03:50:38;;;;;;;11.88;9.50;;;;;;;;;;5039439;28;20040;-61
2023/12/15 03:53:04;;;;;;;10.43;9.02;;;;;;;;;;5042888;28;20033;-60
2023/12/15 03:55:30;;;;;;;11.73;10.10;;;;;;;;;;5039278;28;20040;-60
2023/12/15 03:57:56;;;;;;;9.57;8.40;;;;;;;;;;5041362;28;20076;-60
2023/12/15 04:00:22;;;;;;;9.00;7.05;;;;;;;;;;5043400;28;20601;-60
2023/12/15 04:02:48;;;;;;;7.50;6.45;;;;;;;;;;5037830;28;20620;-60
2023/12/15 04:05:14;;;;;;;9.10;7.38;;;;;;;;;;5038164;28;20045;-60
2023/12/15 04:07:40;;;;;;;6.38;5.78;;;;;;;;;;5037043;28;20081;-60
2023/12/15 04:10:06;;;;;;;7.35;6.15;;;;;;;;;;5037240;28;20142;-60
2023/12/15 04:12:33;;;;;;;6.28;5.70;;;;;;;;;;5039312;28;20080;-60
2023/12/15 04:14:58;;;;;;;6.93;5.97;;;;;;;;;;5041799;28;20041;-61
2023/12/15 04:17:24;;;;;;;5.82;5.00;;;;;;;;;;5039683;28;20370;-60
2023/12/15 04:19:50;;;;;;;7.43;6.22;;;;;;;;;;5041232;28;20040;-61
2023/12/15 04:22:18;;;;;;;10.65;5.93;;;;;;;;;;5038634;28;20581;-60
2023/12/15 04:24:45;;;;;;;9.77;6.95;;;;;;;;;;5040882;28;20042;-61
2023/12/15 04:27:11;;;;;;;7.45;6.22;;;;;;;;;;5039736;28;20076;-61
2023/12/15 04:29:37;;;;;;;8.73;7.22;;;;;;;;;;5037894;28;20037;-60
2023/12/15 04:32:03;;;;;;;8.75;7.38;;;;;;;;;;5040088;28;20451;-61
2023/12/15 04:34:29;;;;;;;7.45;6.00;;;;;;;;;;5036552;28;20041;-60
2023/12/15 04:36:55;;;;;;;7.47;6.10;;;;;;;;;;5039741;28;20044;-60
2023/12/15 04:39:21;;;;;;;10.07;6.28;;;;;;;;;;5040358;28;20041;-60
2023/12/15 04:41:47;;;;;;;8.48;5.65;;;;;;;;;;5042536;28;20048;-60
2023/12/15 04:44:13;;;;;;;7.68;6.03;;;;;;;;;;5038548;28;20598;-61
2023/12/15 04:46:41;;;;;;;7.22;6.53;;;;;;;;;;5036151;28;20163;-60
2023/12/15 04:49:07;;;;;;;6.63;5.10;;;;;;;;;;5035481;28;20053;-61
2023/12/15 04:51:33;;;;;;;7.10;5.88;;;;;;;;;;5034430;28;20096;-60
2023/12/15 04:53:59;;;;;;;7.38;5.68;;;;;;;;;;5036705;28;20045;-60
2023/12/15 04:56:25;;;;;;;5.75;4.85;;;;;;;;;;5035188;28;20055;-60
2023/12/15 04:58:51;;;;;;;4.88;4.38;;;;;;;;;;5039260;28;20040;-61
2023/12/15 05:01:17;;;;;;;4.38;3.97;;;;;;;;;;5038339;28;20092;-61
2023/12/15 05:03:44;;;;;;;4.20;3.85;;;;;;;;;;5039592;28;20554;-60
2023/12/15 05:06:36;;;;;;;4.40;3.78;;;;;;;;;;5038031;28;20607;-61
2023/12/15 05:09:04;;;;;;;4.53;4.07;;;;;;;;;;5040156;28;20053;-60
2023/12/15 05:11:33;;;;;;;4.43;3.55;;;;;;;;;;5037769;28;20742;-61
2023/12/15 05:13:59;;;;;;;4.00;3.15;;;;;;;;;;5039814;28;20072;-60
2023/12/15 05:16:25;;;;;;;5.72;3.15;;;;;;;;;;5040592;28;20068;-61
2023/12/15 05:18:51;;;;;;;5.10;3.47;;;;;;;;;;5038130;28;20048;-60
2023/12/15 05:21:17;;;;;;;3.42;3.13;;;;;;;;;;5040350;28;20513;-61
2023/12/15 05:23:43;;;;;;;3.63;3.33;;;;;;;;;;5040139;28;20049;-61
2023/12/15 05:26:11;;;;;;;4.45;3.10;;;;;;;;;;5038225;28;20642;-60
2023/12/15 05:28:37;;;;;;;3.00;2.60;;;;;;;;;;5038616;28;20067;-60
2023/12/15 05:31:03;;;;;;;3.30;2.58;;;;;;;;;;5043275;28;20725;-61
2023/12/15 05:33:30;;;;;;;2.53;2.10;;;;;;;;;;5040229;28;20036;-60
2023/12/15 05:35:55;;;;;;;2.42;2.20;;;;;;;;;;5038424;28;20448;-60
2023/12/15 05:38:21;;;;;;;2.15;2.05;;;;;;;;;;5040624;28;20068;-60
2023/12/15 05:40:48;;;;;;;1.85;1.67;;;;;;;;;;5040685;28;20060;-60
2023/12/15 05:43:14;;;;;;;1.63;1.52;;;;;;;;;;5039732;28;20037;-60
2023/12/15 05:45:40;;;;;;;2.15;1.98;;;;;;;;;;5036776;28;20045;-60
2023/12/15 05:48:06;;;;;;;2.60;2.10;;;;;;;;;;5035451;28;20049;-60
2023/12/15 05:50:32;;;;;;;2.60;2.30;;;;;;;;;;5037677;28;20163;-60
2023/12/15 05:52:58;;;;;;;4.05;3.20;;;;;;;;;;5038762;28;20048;-60
2023/12/15 05:55:24;;;;;;;3.65;3.35;;;;;;;;;;5038503;28;20406;-60
2023/12/15 05:57:50;;;;;;;7.15;3.55;;;;;;;;;;5035297;28;20064;-60
2023/12/15 06:00:16;;;;;;;4.97;3.60;;;;;;;;;;5038336;28;20048;-60
2023/12/15 06:02:42;;;;;;;4.95;3.75;;;;;;;;;;5033879;28;20741;-61
2023/12/15 06:05:09;;;;;;;2.78;2.47;;;;;;;;;;5036924;28;20081;-60
2023/12/15 06:07:35;;;;;;;4.15;3.28;;;;;;;;;;5036197;28;20059;-60
2023/12/15 06:10:01;;;;;;;3.47;2.80;;;;;;;;;;5036316;28;20044;-60
2023/12/15 06:12:27;;;;;;;5.03;2.97;;;;;;;;;;5034257;28;20050;-60
2023/12/15 06:14:53;;;;;;;5.30;3.38;;;;;;;;;;5037233;28;20122;-60
2023/12/15 06:17:20;;;;;;;6.38;3.85;;;;;;;;;;5035875;28;20542;-59
2023/12/15 06:19:46;;;;;;;7.15;3.72;;;;;;;;;;5035838;28;20552;-61
2023/12/15 06:22:12;;;;;;;8.32;4.57;;;;;;;;;;5037453;28;20047;-61
2023/12/15 06:24:37;;;;;;;8.60;4.82;;;;;;;;;;5037293;28;20028;-60
2023/12/15 06:27:03;;;;;;;10.48;4.45;;;;;;;;;;5036933;28;20063;-61
2023/12/15 06:29:30;;;;;;;9.52;3.65;;;;;;;;;;5033948;28;20063;-60
2023/12/15 06:31:56;;;;;;;5.55;3.63;;;;;;;;;;5038960;28;20489;-61
2023/12/15 06:34:22;;;;;;;4.85;3.50;;;;;;;;;;5041072;28;20036;-60
2023/12/15 06:36:48;;;;;;;5.38;3.13;;;;;;;;;;5034146;28;20049;-61
2023/12/15 06:39:14;;;;;;;4.78;3.60;;;;;;;;;;5034272;28;20515;-61
2023/12/15 06:41:40;;;;;;;3.55;2.40;;;;;;;;;;5039892;28;20090;-61
2023/12/15 06:44:06;;;;;;;2.85;2.05;;;;;;;;;;5035966;28;20136;-60
2023/12/15 06:46:36;;;;;;;3.25;1.75;;;;;;;;;;5034294;28;20048;-60
2023/12/15 06:49:02;;;;;;;2.95;2.17;;;;;;;;;;5035761;28;20421;-61
2023/12/15 06:51:29;;;;;;;1.88;1.67;;;;;;;;;;5038023;28;20583;-60
2023/12/15 06:53:55;;;;;;;1.92;1.40;;;;;;;;;;5037461;28;20044;-61
2023/12/15 06:56:21;;;;;;;1.05;0.95;;;;;;;;;;5036293;28;20041;-61
2023/12/15 06:58:47;;;;;;;2.03;1.45;;;;;;;;;;5038163;28;20040;-60
2023/12/15 07:01:13;;;;;;;1.83;1.27;;;;;;;;;;5039685;28;20612;-61
2023/12/15 07:03:40;;;;;;;10.05;2.22;;;;;;;;;;5037004;28;20124;-61
2023/12/15 07:06:06;;;;;;;5.05;2.10;;;;;;;;;;5038539;28;20041;-60
2023/12/15 07:08:32;;;;;;;5.43;2.42;;;;;;;;;;5037172;28;20049;-60
2023/12/15 07:10:58;;;;;;;4.20;2.08;;;;;;;;;;5038824;28;20385;-60
2023/12/15 07:13:24;;;;;;;3.58;2.10;;;;;;;;;;5037016;28;20047;-60
2023/12/15 07:15:50;;;;;;;6.53;2.38;;;;;;;;;;5040697;28;20119;-60
2023/12/15 07:18:16;;;;;;;3.03;1.83;;;;;;;;;;5041195;28;20700;-61
2023/12/15 07:20:42;;;;;;;7.30;2.75;;;;;;;;;;5035024;28;20059;-60
2023/12/15 07:23:08;;;;;;;5.30;2.63;;;;;;;;;;5034708;28;20437;-60
2023/12/15 07:25:37;;;;;;;3.53;2.15;;;;;;;;;;5036271;28;20049;-60
2023/12/15 07:28:04;;;;;;;4.78;1.77;;;;;;;;;;5034356;28;20072;-61
2023/12/15 07:30:30;;;;;;;4.50;1.63;;;;;;;;;;5035001;28;20464;-61
2023/12/15 07:32:56;;;;;;;5.90;1.80;;;;;;;;;;5035938;28;20588;-61
2023/12/15 07:35:22;;;;;;;2.63;1.85;;;;;;;;;;5033722;28;20106;-61
2023/12/15 07:37:48;;;;;;;4.20;2.58;;;;;;;;;;5038056;28;20044;-59
2023/12/15 07:40:14;;;;;;;5.28;2.17;;;;;;;;;;5038765;28;20402;-59
2023/12/15 07:42:40;;;;;;;8.07;2.83;;;;;;;;;;5039620;28;20041;-59
2023/12/15 07:45:07;;;;;;;7.95;2.47;;;;;;;;;;5051390;28;20484;-59
2023/12/15 07:47:33;;;;;;;5.18;2.30;;;;;;;;;;5033239;28;20061;-59
2023/12/15 07:49:59;;;;;;;5.13;1.55;;;;;;;;;;5034877;28;20041;-59
2023/12/15 07:52:25;;;;;;;3.75;1.45;;;;;;;;;;5039290;28;20453;-59
2023/12/15 07:54:51;;;;;;;9.30;2.20;;;;;;;;;;5042746;28;20080;-59
2023/12/15 07:57:17;;;;;;;5.57;2.08;;;;;;;;;;5044561;28;20041;-59
2023/12/15 07:59:43;;;;;;;2.95;1.52;;;;;;;;;;5043386;28;20041;-59
2023/12/15 08:02:09;;;;;;;4.28;1.98;;;;;;;;;;5041848;28;20766;-59
2023/12/15 08:04:35;;;;;;;3.17;1.67;;;;;;;;;;5044171;28;20140;-59
2023/12/15 08:07:01;;;;;;;4.03;1.60;;;;;;;;;;5043801;28;20120;-59
2023/12/15 08:09:27;;;;;;;3.85;1.52;;;;;;;;;;5044543;28;20465;-59
2023/12/15 08:11:53;;;;;;;5.18;2.05;;;;;;;;;;5044146;28;20048;-59
2023/12/15 08:14:19;;;;;;;3.25;2.15;;;;;;;;;;5046239;28;20106;-59
2023/12/15 08:16:45;;;;;;;4.25;1.80;;;;;;;;;;5044480;28;20043;-59
2023/12/15 08:19:11;;;;;;;7.32;1.83;;;;;;;;;;5047677;28;20041;-59
2023/12/15 08:21:37;;;;;;;5.47;2.17;;;;;;;;;;5043886;28;20068;-58
2023/12/15 08:24:03;;;;;;;6.22;2.30;;;;;;;;;;5045736;28;20658;-59
2023/12/15 08:26:29;;;;;;;5.75;1.85;;;;;;;;;;5042195;28;20041;-59
2023/12/15 08:28:55;;;;;;;7.90;1.98;;;;;;;;;;5047322;28;20033;-59
2023/12/15 08:31:25;;;;;;;5.57;1.90;;;;;;;;;;5047712;28;20049;-59
2023/12/15 08:33:51;;;;;;;4.03;1.60;;;;;;;;;;5044465;28;20037;-59
2023/12/15 08:36:17;;;;;;;5.80;2.00;;;;;;;;;;5046950;28;20519;-59
2023/12/15 08:38:43;;;;;;;3.55;1.33;;;;;;;;;;5046421;28;20546;-59
2023/12/15 08:41:10;;;;;;;6.70;2.72;;;;;;;;;;5045265;28;20099;-60
2023/12/15 08:43:36;;;;;;;3.60;1.63;;;;;;;;;;5047258;28;20504;-55
2023/12/15 08:46:02;;;;;;;2.10;0.90;;;;;;;;;;5047435;28;20079;-67
2023/12/15 08:48:28;;;;;;;1.80;0.85;;;;;;;;;;5048001;28;20041;-61
2023/12/15 08:50:54;;;;;;;2.47;1.25;;;;;;;;;;5046658;28;20087;-64
2023/12/15 08:53:21;;;;;;;3.25;1.42;;;;;;;;;;5046743;28;20094;-62
2023/12/15 08:55:47;;;;;;;2.92;1.08;;;;;;;;;;5047966;28;20079;-63
2023/12/15 08:58:13;;;;;;;3.45;1.77;;;;;;;;;;5047451;28;20398;-64
2023/12/15 09:00:39;;;;;;;5.05;1.67;;;;;;;;;;5048210;28;20122;-64
2023/12/15 09:03:05;;;;;;;6.90;2.22;;;;;;;;;;5046306;28;20041;-64
2023/12/15 09:05:32;;;;;;;7.32;1.75;;;;;;;;;;5047839;28;20041;-64
2023/12/15 09:07:58;;;;;;;5.28;1.52;;;;;;;;;;5045029;28;20442;-64
2023/12/15 09:10:24;;;;;;;5.78;2.03;;;;;;;;;;5046129;28;20041;-64
2023/12/15 09:12:50;;;;;;;3.47;1.55;;;;;;;;;;5047827;28;20118;-64
2023/12/15 09:15:16;;;;;;;4.03;1.08;;;;;;;;;;5044971;28;20455;-64
2023/12/15 09:17:43;;;;;;;2.72;1.27;;;;;;;;;;5044651;28;20063;-63
2023/12/15 09:20:10;;;;;;;2.65;0.85;;;;;;;;;;5044828;28;20076;-63
2023/12/15 09:22:36;;;;;;;3.75;1.45;;;;;;;;;;5046219;28;20148;-63
2023/12/15 09:25:02;;;;;;;8.10;2.15;;;;;;;;;;5044038;28;20036;-64
2023/12/15 09:27:28;;;;;;;3.55;1.77;;;;;;;;;;5044567;28;20139;-64
2023/12/15 09:29:54;;;;;;;3.83;1.45;;;;;;;;;;5047401;28;20108;-64
2023/12/15 09:32:20;;;;;;;3.63;1.30;;;;;;;;;;5045957;28;20063;-64
2023/12/15 09:34:46;;;;;;;5.25;1.92;;;;;;;;;;5046812;28;20124;-64
2023/12/15 09:37:13;;;;;;;8.10;2.70;;;;;;;;;;5043168;28;20140;-64
2023/12/15 09:39:39;;;;;;;8.57;2.47;;;;;;;;;;5042014;28;20777;-64
2023/12/15 09:42:06;;;;;;;2.72;1.83;;;;;;;;;;5045626;28;20045;-64
2023/12/15 09:44:31;;;;;;;4.13;2.10;;;;;;;;;;5039080;28;20898;-64
2023/12/15 09:46:58;;;;;;;4.65;1.95;;;;;;;;;;5042819;28;20052;-64
2023/12/15 09:49:25;;;;;;;4.53;1.52;;;;;;;;;;5043666;28;20064;-64
2023/12/15 09:51:52;;;;;;;5.80;1.83;;;;;;;;;;5046134;28;20114;-64
2023/12/15 09:54:19;;;;;;;7.55;2.13;;;;;;;;;;5045465;28;20036;-64
2023/12/15 09:56:46;;;;;;;2.33;1.40;;;;;;;;;;5045414;28;20262;-64
2023/12/15 09:59:12;;;;;;;2.50;1.60;;;;;;;;;;5045316;28;20040;-64
2023/12/15 10:01:38;;;;;;;3.65;1.45;;;;;;;;;;5045206;28;20048;-64
2023/12/15 10:04:07;;;;;;;5.80;1.40;;;;;;;;;;5045912;28;20182;-65
2023/12/15 10:06:35;;;;;;;5.18;2.10;;;;;;;;;;5044703;28;20045;-64
2023/12/15 10:09:01;;;;;;;3.55;1.92;;;;;;;;;;5038181;28;20512;-64
2023/12/15 10:11:29;;;;;;;3.55;1.90;;;;;;;;;;5043930;28;20045;-64
2023/12/15 10:13:55;;;;;;;4.53;1.95;;;;;;;;;;5043824;28;20052;-64
2023/12/15 10:16:21;;;;;;;5.63;2.05;;;;;;;;;;5044158;28;20049;-64
2023/12/15 10:18:47;;;;;;;9.02;3.75;;;;;;;;;;5045130;28;20393;-64
2023/12/15 10:21:13;;;;;;;4.72;2.22;;;;;;;;;;5044921;28;20120;-64
2023/12/15 10:23:39;;;;;;;7.35;2.97;;;;;;;;;;5044734;28;20178;-64
2023/12/15 10:26:06;;;;;;;9.68;2.95;;;;;;;;;;5045320;28;20138;-65
2023/12/15 10:28:39;;;;;;;3.63;2.03;;;;;;;;;;5044389;28;20155;-64
2023/12/15 10:31:06;;;;;;;2.05;1.83;;;;;;;;;;5043954;28;20128;-64
2023/12/15 10:33:33;;;;;;;4.32;2.30;;;;;;;;;;5045093;28;20037;-65
2023/12/15 10:36:03;;;;;;;5.47;1.95;;;;;;;;;;5044075;28;20045;-64
2023/12/15 10:38:29;;;;;;;8.32;2.50;;;;;;;;;;5043176;28;20186;-64
2023/12/15 10:40:57;;;;;;;6.53;2.60;;;;;;;;;;5043319;28;20052;-64
2023/12/15 10:43:23;;;;;;;7.80;2.50;;;;;;;;;;5045034;28;20045;-64
2023/12/15 10:45:53;;;;;;;5.68;2.50;;;;;;;;;;5046381;28;20028;-64
2023/12/15 10:48:19;;;;;;;3.90;1.92;;;;;;;;;;5046089;28;20045;-65
2023/12/15 10:50:46;;;;;;;4.45;1.52;;;;;;;;;;5045528;28;20130;-64
2023/12/15 10:53:15;;;;;;;5.50;1.50;;;;;;;;;;5045915;28;20036;-64
2023/12/15 10:55:46;;;;;;;4.30;1.67;;;;;;;;;;5036719;28;20044;-64
2023/12/15 10:58:15;;;;;;;5.13;2.22;;;;;;;;;;5045726;28;20516;-64
2023/12/15 11:00:41;;;;;;;8.00;2.28;;;;;;;;;;5044836;28;20036;-64
2023/12/15 11:03:10;;;;;;;4.13;1.92;;;;;;;;;;5044191;28;20464;-64
2023/12/15 11:05:36;;;;;;;6.78;2.50;;;;;;;;;;5044123;28;20041;-64
2023/12/15 11:08:03;;;;;;;4.88;2.08;;;;;;;;;;5044556;28;20037;-64
2023/12/15 11:10:29;;;;;;;6.47;2.72;;;;;;;;;;5042571;28;20049;-64
2023/12/15 11:12:55;;;;;;;6.18;2.50;;;;;;;;;;5044764;28;20040;-64
2023/12/15 11:15:23;;;;;;;7.20;2.92;;;;;;;;;;5044520;28;20044;-64
2023/12/15 11:17:58;;;;;;;10.70;3.50;;;;;;;;;;5044355;28;20045;-64
2023/12/15 11:20:25;;;;;;;9.05;2.45;;;;;;;;;;5045684;28;20040;-64
2023/12/15 11:22:57;;;;;;;6.72;2.40;;;;;;;;;;5045665;28;20040;-64
2023/12/15 11:25:27;;;;;;;6.78;2.58;;;;;;;;;;5045142;28;20037;-64
2023/12/15 11:28:00;;;;;;;8.27;2.90;;;;;;;;;;5045599;28;20492;-64
2023/12/15 11:30:26;;;;;;;;;;;;;;;;;;5045764;28;20438;-64
2023/12/15 11:32:52;;;;;;;7.40;2.45;;;;;;;;;;5043421;28;20054;-65
2023/12/15 11:35:47;;;;;;;5.38;1.83;;;;;;;;;;5045186;28;20116;-64
2023/12/15 11:38:14;;;;;;;8.82;3.25;;;;;;;;;;5032015;28;20088;-64
2023/12/15 11:40:41;;;;;;;11.98;3.10;;;;;;;;;;5043779;28;20390;-64
2023/12/15 11:43:07;;;;;;;14.15;3.72;;;;;;;;;;5043755;28;20033;-64
2023/12/15 11:45:34;;;;;;;9.43;3.45;;;;;;;;;;5044777;28;20037;-64
2023/12/15 11:48:00;;;;;;;5.85;2.05;;;;;;;;;;5045292;28;20057;-64
2023/12/15 11:50:26;;;;;;;3.90;2.08;;;;;;;;;;5049883;28;20053;-64
2023/12/15 11:52:55;;;;;;;10.40;3.75;;;;;;;;;;5049248;28;20032;-64
2023/12/15 11:55:21;;;;;;;5.35;2.28;;;;;;;;;;5031334;28;20088;-64
2023/12/15 11:57:47;;;;;;;8.63;2.58;;;;;;;;;;5047820;28;20399;-64
2023/12/15 12:00:14;;;;;;;7.25;2.95;;;;;;;;;;5047293;28;20048;-64
2023/12/15 12:02:41;;;;;;;13.73;3.95;;;;;;;;;;5049192;28;20052;-64
2023/12/15 12:05:08;;;;;;;15.93;4.00;;;;;;;;;;5049404;28;20497;-64
2023/12/15 12:07:34;;;;;;;11.43;3.60;;;;;;;;;;5042014;28;20444;-64
2023/12/15 12:10:05;;;;;;;13.95;4.45;;;;;;;;;;5038156;28;20505;-64
2023/12/15 12:12:31;;;;;;;9.82;3.70;;;;;;;;;;5048085;28;20049;-64
2023/12/15 12:15:02;;;;;;;12.73;4.25;;;;;;;;;;5046904;28;20049;-63
2023/12/15 12:17:28;;;;;;;9.40;3.60;;;;;;;;;;5048775;28;20497;-63
2023/12/15 12:19:54;;;;;;;8.70;3.53;;;;;;;;;;5048749;28;20197;-64
2023/12/15 12:22:20;;;;;;;12.13;3.90;;;;;;;;;;5048844;28;20138;-64
2023/12/15 12:24:46;;;;;;;11.82;3.53;;;;;;;;;;5048737;28;20037;-64
2023/12/15 12:27:12;;;;;;;9.85;3.28;;;;;;;;;;5048344;28;20036;-63
2023/12/15 12:29:39;;;;;;;10.65;3.80;;;;;;;;;;5047345;28;20048;-64
2023/12/15 12:32:05;;;;;;;12.23;3.85;;;;;;;;;;5048791;28;20112;-64
2023/12/15 12:34:31;;;;;;;7.93;2.78;;;;;;;;;;5047825;28;20116;-64
2023/12/15 12:36:58;;;;;;;8.55;3.58;;;;;;;;;;5048235;28;20107;-64
2023/12/15 12:39:25;;;;;;;7.85;3.40;;;;;;;;;;5048525;28;20045;-65
2023/12/15 12:41:51;;;;;;;8.20;3.78;;;;;;;;;;5079991;28;20119;-65
2023/12/15 12:44:17;;;;;;;14.60;4.30;;;;;;;;;;5047116;28;20171;-65
2023/12/15 12:46:43;;;;;;;10.10;3.45;;;;;;;;;;5046495;28;20107;-64
2023/12/15 12:49:09;;;;;;;7.93;3.28;;;;;;;;;;5048246;28;20080;-64
2023/12/15 12:51:35;;;;;;;6.13;2.30;;;;;;;;;;5046437;28;20072;-64
2023/12/15 12:54:02;;;;;;;11.85;3.83;;;;;;;;;;5045542;28;20064;-64
2023/12/15 12:56:28;;;;;;;12.90;4.72;;;;;;;;;;5046040;28;20083;-64
2023/12/15 12:58:54;;;;;;;11.20;3.83;;;;;;;;;;5047786;28;20069;-64
2023/12/15 13:01:20;;;;;;;9.25;3.83;;;;;;;;;;5045540;28;20037;-64
2023/12/15 13:03:47;;;;;;;5.95;2.58;;;;;;;;;;5045185;28;20099;-64
2023/12/15 13:06:13;;;;;;;10.93;3.08;;;;;;;;;;5047714;28;20044;-64
2023/12/15 13:08:40;;;;;;;11.05;3.83;;;;;;;;;;5047712;28;20396;-64
2023/12/15 13:11:06;;;;;;;12.10;3.75;;;;;;;;;;5046933;28;20155;-64
2023/12/15 13:13:32;;;;;;;9.35;3.42;;;;;;;;;;5047222;28;20041;-64
2023/12/15 13:15:59;;;;;;;7.65;2.97;;;;;;;;;;5046253;28;20151;-64
2023/12/15 13:18:25;;;;;;;12.68;2.63;;;;;;;;;;5047122;28;20047;-64
2023/12/15 13:20:51;;;;;;;9.35;2.80;;;;;;;;;;5047707;28;20044;-64
2023/12/15 13:23:17;;;;;;;10.85;2.90;;;;;;;;;;5045779;28;20080;-64
2023/12/15 13:25:43;;;;;;;8.20;2.67;;;;;;;;;;5039516;28;20048;-64
2023/12/15 13:28:10;;;;;;;10.63;3.33;;;;;;;;;;5046981;28;20052;-64
2023/12/15 13:30:36;;;;;;;12.00;3.35;;;;;;;;;;5038572;28;20048;-64
2023/12/15 13:33:02;;;;;;;5.93;2.47;;;;;;;;;;5038220;28;20049;-63
2023/12/15 13:35:28;;;;;;;4.20;1.98;;;;;;;;;;5047468;28;20037;-64
2023/12/15 13:37:54;;;;;;;5.95;2.42;;;;;;;;;;5047092;28;20124;-64
2023/12/15 13:40:20;;;;;;;5.22;2.30;;;;;;;;;;5045292;28;20120;-64
2023/12/15 13:42:46;;;;;;;5.25;2.05;;;;;;;;;;5046472;28;20091;-63
2023/12/15 13:45:12;;;;;;;5.90;2.13;;;;;;;;;;5045715;28;20045;-64
2023/12/15 13:47:38;;;;;;;11.25;2.53;;;;;;;;;;5046895;28;20053;-64
2023/12/15 13:50:04;;;;;;;6.72;2.17;;;;;;;;;;5045417;28;20045;-64
2023/12/15 13:52:31;;;;;;;10.20;2.63;;;;;;;;;;5043819;28;20048;-64
2023/12/15 13:54:57;;;;;;;5.28;2.17;;;;;;;;;;5046202;28;20037;-65
2023/12/15 13:57:23;;;;;;;3.08;1.25;;;;;;;;;;5046721;28;20127;-64
2023/12/15 13:59:50;;;;;;;7.00;2.25;;;;;;;;;;5045989;28;20123;-65
2023/12/15 14:02:16;;;;;;;6.32;2.10;;;;;;;;;;5042931;28;20056;-64
2023/12/15 14:04:42;;;;;;;6.07;2.30;;;;;;;;;;5039478;28;20549;-64
2023/12/15 14:07:08;;;;;;;5.30;1.73;;;;;;;;;;5045547;28;20123;-64
2023/12/15 14:09:35;;;;;;;6.07;2.00;;;;;;;;;;5044328;28;20415;-64
2023/12/15 14:12:01;;;;;;;4.20;1.42;;;;;;;;;;5044690;28;20428;-64
2023/12/15 14:14:27;;;;;;;5.00;2.00;;;;;;;;;;5044095;28;20045;-64
2023/12/15 14:16:53;;;;;;;4.32;2.00;;;;;;;;;;5044829;28;20087;-64
2023/12/15 14:19:19;;;;;;;5.60;1.77;;;;;;;;;;5044789;28;20102;-64
2023/12/15 14:21:45;;;;;;;7.57;2.28;;;;;;;;;;5043924;28;20048;-64
2023/12/15 14:24:14;;;;;;;9.10;2.90;;;;;;;;;;5044989;28;20500;-64
2023/12/15 14:26:41;;;;;;;10.73;2.33;;;;;;;;;;5043026;28;20033;-64
2023/12/15 14:29:07;;;;;;;4.93;1.55;;;;;;;;;;5043709;28;20124;-64
2023/12/15 14:31:33;;;;;;;4.47;1.40;;;;;;;;;;5044077;28;20083;-64